Time;durP1;ratioP1;P1;durP2;ratioP2;P2;SDS_P1;SDS_P2;PMS_P1;PMS_P2;Temp;Humidity;BMP_temperature;BMP_pressure;BME280_temperature;BME280_humidity;BME280_pressure;Samples;Min_cycle;Max_cycle;Signal;HPM_P1;HPM_P2
2023/09/22 00:02:25;;;;;;;1.27;0.40;;;;;;;23.08;100.00;94974.03;5040393;28;20033;-91
2023/09/22 00:04:52;;;;;;;0.53;0.40;;;;;;;23.06;100.00;94985.03;5088543;28;20020;-91
2023/09/22 00:07:38;;;;;;;1.43;0.40;;;;;;;22.89;100.00;94989.81;5064696;28;20032;-93
2023/09/22 00:10:06;;;;;;;0.85;0.50;;;;;;;23.01;100.00;94995.75;5055649;28;20494;-92
2023/09/22 00:12:32;;;;;;;1.17;0.43;;;;;;;22.40;100.00;94987.56;5056477;28;20030;-92
2023/09/22 00:14:58;;;;;;;2.90;0.50;;;;;;;22.47;100.00;94991.63;5063198;28;20016;-92
2023/09/22 00:17:25;;;;;;;0.87;0.40;;;;;;;22.82;100.00;94979.34;5093726;28;20046;-93
2023/09/22 00:19:50;;;;;;;0.50;0.50;;;;;;;22.58;100.00;94971.03;5096707;28;20024;-93
2023/09/22 00:22:16;;;;;;;2.73;0.60;;;;;;;22.65;100.00;94966.19;5078591;28;20020;-92
2023/09/22 00:24:42;;;;;;;1.43;0.70;;;;;;;22.67;100.00;94968.59;5077697;28;20328;-91
2023/09/22 00:27:07;;;;;;;2.47;0.97;;;;;;;22.42;100.00;94969.38;5074267;28;20023;-92
2023/09/22 00:29:33;;;;;;;0.93;0.40;;;;;;;22.06;100.00;94972.69;5078537;28;20015;-92
2023/09/22 00:31:59;;;;;;;1.53;0.70;;;;;;;22.16;100.00;94969.28;5073049;28;20039;-91
2023/09/22 00:34:25;;;;;;;1.50;0.50;;;;;;;22.19;100.00;94968.75;5082779;28;20008;-93
2023/09/22 00:36:56;;;;;;;2.10;0.60;;;;;;;22.44;100.00;94959.22;5062702;28;20074;-93
2023/09/22 00:39:22;;;;;;;2.03;0.50;;;;;;;22.47;100.00;94959.47;5051287;28;20024;-92
2023/09/22 00:41:48;;;;;;;0.83;0.60;;;;;;;22.27;100.00;94960.25;5058129;28;20012;-93
2023/09/22 00:44:15;;;;;;;1.30;0.53;;;;;;;22.60;100.00;94966.19;5043284;28;20055;-92
2023/09/22 00:46:41;;;;;;;1.50;0.60;;;;;;;22.38;100.00;94960.25;5073463;28;20031;-92
2023/09/22 00:49:08;;;;;;;1.43;0.43;;;;;;;23.12;100.00;94956.34;5058696;28;20032;-92
2023/09/22 00:51:35;;;;;;;1.43;0.63;;;;;;;22.09;100.00;94949.97;5055390;28;20027;-92
2023/09/22 00:54:01;;;;;;;2.83;0.63;;;;;;;21.88;100.00;94946.41;5052507;28;20016;-92
2023/09/22 00:56:28;;;;;;;1.07;0.50;;;;;;;21.62;100.00;94938.25;5043929;28;20031;-92
2023/09/22 00:58:54;;;;;;;3.63;0.80;;;;;;;22.53;100.00;94944.22;5066784;28;20051;-92
2023/09/22 01:01:20;;;;;;;1.43;0.60;;;;;;;22.24;100.00;94944.69;5055382;28;20058;-92
2023/09/22 01:03:51;;;;;;;1.57;0.57;;;;;;;21.95;100.00;94946.16;5056417;28;20030;-91
2023/09/22 01:06:20;;;;;;;1.63;0.60;;;;;;;21.96;100.00;94948.56;5060440;28;20437;-93
2023/09/22 01:08:46;;;;;;;1.60;0.70;;;;;;;21.95;100.00;94940.81;5050403;28;20051;-92
2023/09/22 01:11:12;;;;;;;0.67;0.40;;;;;;;21.99;100.00;94947.25;5050428;28;20024;-92
2023/09/22 01:13:38;;;;;;;14.63;1.63;;;;;;;21.23;100.00;94945.78;5057265;28;20042;-92
2023/09/22 01:16:04;;;;;;;2.57;0.60;;;;;;;21.60;100.00;94956.47;5070413;28;20028;-91
2023/09/22 01:18:30;;;;;;;2.10;0.63;;;;;;;21.43;100.00;94945.13;5054559;28;20023;-92
2023/09/22 01:20:58;;;;;;;0.90;0.50;;;;;;;21.71;100.00;94935.09;5050997;28;20567;-92
2023/09/22 01:23:24;;;;;;;1.57;0.50;;;;;;;21.30;100.00;94938.34;5056983;28;20035;-92
2023/09/22 01:25:51;;;;;;;1.37;0.60;;;;;;;21.53;100.00;94949.72;5073932;28;20032;-91
2023/09/22 01:28:17;;;;;;;2.53;0.77;;;;;;;21.01;100.00;94961.91;5049333;28;20059;-92
2023/09/22 01:30:43;;;;;;;1.40;0.70;;;;;;;21.55;100.00;94972.47;5056182;28;20024;-92
2023/09/22 01:33:09;;;;;;;1.53;0.50;;;;;;;21.38;100.00;94972.63;5056651;28;20028;-92
2023/09/22 01:35:36;;;;;;;3.50;0.90;;;;;;;21.55;100.00;94969.78;5072488;28;20027;-91
2023/09/22 01:38:09;;;;;;;2.33;0.60;;;;;;;21.28;100.00;94980.56;5051869;28;20459;-91
2023/09/22 01:40:34;;;;;;;3.08;0.70;;;;;;;21.12;100.00;94984.19;5037949;28;20035;-91
2023/09/22 01:43:00;;;;;;;2.07;0.90;;;;;;;21.26;100.00;94987.22;5053628;28;20028;-92
2023/09/22 01:45:26;;;;;;;2.37;0.80;;;;;;;21.20;100.00;94975.69;5058058;28;20036;-91
2023/09/22 01:47:51;;;;;;;2.43;0.80;;;;;;;21.04;100.00;94965.94;5055662;28;20020;-90
2023/09/22 01:50:17;;;;;;;1.73;0.63;;;;;;;21.52;100.00;94964.97;5055117;28;20039;-91
2023/09/22 01:52:43;;;;;;;1.37;0.53;;;;;;;21.22;100.00;94967.41;5055579;28;20047;-92
2023/09/22 01:55:09;;;;;;;0.97;0.60;;;;;;;21.18;100.00;94970.59;5049848;28;20024;-92
2023/09/22 01:57:35;;;;;;;1.67;0.70;;;;;;;21.09;100.00;94965.97;5040011;28;20020;-91
2023/09/22 02:00:10;;;;;;;1.53;0.63;;;;;;;20.94;100.00;94967.47;5051960;28;20024;-91
2023/09/22 02:02:42;;;;;;;3.70;0.77;;;;;;;21.08;100.00;94969.72;5076270;28;20024;-91
2023/09/22 02:05:10;;;;;;;1.60;0.70;;;;;;;20.82;100.00;94971.38;5062372;28;20024;-91
2023/09/22 02:07:35;;;;;;;1.03;0.57;;;;;;;21.39;100.00;94965.41;5073856;28;20080;-91
2023/09/22 02:10:01;;;;;;;1.50;0.70;;;;;;;21.89;100.00;94974.78;5084964;28;20261;-92
2023/09/22 02:12:27;;;;;;;1.63;0.77;;;;;;;21.37;100.00;94973.72;5082045;28;20024;-92
2023/09/22 02:14:53;;;;;;;1.67;0.57;;;;;;;21.59;100.00;94975.44;5057136;28;20027;-92
2023/09/22 02:17:19;;;;;;;1.93;0.63;;;;;;;21.60;100.00;94972.50;5059667;28;20394;-92
2023/09/22 02:19:45;;;;;;;1.60;0.50;;;;;;;21.63;100.00;94976.53;5057814;28;20036;-91
2023/09/22 02:22:10;;;;;;;4.90;0.80;;;;;;;21.76;100.00;94970.69;5055394;28;20532;-91
2023/09/22 02:24:36;;;;;;;1.00;0.60;;;;;;;21.61;100.00;94978.66;5051516;28;20103;-90
2023/09/22 02:27:02;;;;;;;3.17;0.90;;;;;;;21.64;100.00;94978.94;5070348;28;20062;-92
2023/09/22 02:29:29;;;;;;;2.50;0.60;;;;;;;21.76;100.00;94992.09;5071511;28;20078;-92
2023/09/22 02:31:54;;;;;;;2.70;1.00;;;;;;;21.58;100.00;95001.38;5079761;28;20417;-92
2023/09/22 02:34:32;;;;;;;2.53;1.07;;;;;;;21.53;100.00;95001.38;5067141;28;20616;-92
2023/09/22 02:36:58;;;;;;;2.07;0.70;;;;;;;21.43;100.00;94982.56;5057172;28;20462;-92
2023/09/22 02:39:24;;;;;;;2.37;0.90;;;;;;;21.63;100.00;94977.34;5071750;28;20034;-91
2023/09/22 02:41:49;;;;;;;2.27;0.93;;;;;;;21.75;100.00;94985.16;5055971;28;20021;-92
2023/09/22 02:44:15;;;;;;;3.17;0.83;;;;;;;21.91;100.00;94979.88;5051455;28;20034;-92
2023/09/22 02:46:41;;;;;;;1.97;0.73;;;;;;;21.24;100.00;94981.34;5055730;28;20099;-92
2023/09/22 02:49:08;;;;;;;2.83;0.90;;;;;;;21.47;100.00;94988.22;5058717;28;20043;-92
2023/09/22 02:51:34;;;;;;;1.23;0.63;;;;;;;21.30;100.00;94999.03;5049866;28;20040;-91
2023/09/22 02:54:00;;;;;;;2.17;0.83;;;;;;;21.66;100.00;94997.41;5055935;28;20034;-92
2023/09/22 02:56:28;;;;;;;2.40;0.80;;;;;;;21.83;100.00;94997.22;5066723;28;20055;-92
2023/09/22 02:58:53;;;;;;;2.97;1.00;;;;;;;21.97;100.00;94987.69;5071500;28;20020;-92
2023/09/22 03:01:24;;;;;;;1.67;0.63;;;;;;;22.12;100.00;94978.88;5070140;28;20039;-92
2023/09/22 03:03:51;;;;;;;1.17;0.50;;;;;;;22.20;100.00;94977.59;5067579;28;20012;-91
2023/09/22 03:06:19;;;;;;;3.03;1.03;;;;;;;22.39;100.00;94972.59;5074854;28;20080;-92
2023/09/22 03:08:44;;;;;;;1.47;0.80;;;;;;;22.45;100.00;94958.94;5058642;28;20051;-91
2023/09/22 03:11:10;;;;;;;2.63;0.97;;;;;;;22.81;100.00;94943.72;5062197;28;20024;-92
2023/09/22 03:13:38;;;;;;;2.70;0.80;;;;;;;22.44;100.00;94956.53;5039706;28;20467;-91
2023/09/22 03:16:04;;;;;;;2.93;0.97;;;;;;;22.25;100.00;94972.28;5056227;28;20035;-92
2023/09/22 03:18:30;;;;;;;2.70;1.10;;;;;;;22.42;100.00;94969.38;5051456;28;20100;-91
2023/09/22 03:20:56;;;;;;;1.77;0.80;;;;;;;22.58;100.00;94976.38;5045941;28;20020;-92
2023/09/22 03:23:23;;;;;;;2.50;1.00;;;;;;;22.43;100.00;94958.38;5044538;28;20086;-91
2023/09/22 03:25:50;;;;;;;2.13;1.00;;;;;;;22.53;100.00;94965.63;5062383;28;20020;-91
2023/09/22 03:28:16;;;;;;;1.57;0.90;;;;;;;22.78;100.00;94964.88;5050132;28;20116;-91
2023/09/22 03:30:41;;;;;;;1.97;0.80;;;;;;;22.99;100.00;94971.88;5054391;28;20391;-91
2023/09/22 03:33:11;;;;;;;3.20;1.00;;;;;;;23.06;100.00;94995.75;5073946;28;20039;-91
2023/09/22 03:35:38;;;;;;;1.47;0.73;;;;;;;23.16;100.00;94989.59;5059120;28;20020;-91
2023/09/22 03:38:09;;;;;;;2.77;0.77;;;;;;;22.77;100.00;94996.25;5048380;28;20034;-92
2023/09/22 03:40:40;;;;;;;1.90;0.83;;;;;;;22.64;100.00;95009.34;5059704;28;20028;-91
2023/09/22 03:43:08;;;;;;;1.50;0.77;;;;;;;22.68;100.00;95002.38;5057487;28;20020;-91
2023/09/22 03:45:34;;;;;;;2.47;1.00;;;;;;;22.01;100.00;95009.38;5055076;28;20016;-91
2023/09/22 03:47:59;;;;;;;1.60;0.80;;;;;;;22.27;100.00;95015.69;5058898;28;20030;-91
2023/09/22 03:50:25;;;;;;;2.03;0.90;;;;;;;22.03;100.00;95017.94;5058287;28;20432;-91
2023/09/22 03:52:51;;;;;;;2.87;1.10;;;;;;;22.04;100.00;95022.25;5055507;28;20012;-91
2023/09/22 03:55:17;;;;;;;1.23;0.90;;;;;;;22.12;100.00;95037.78;5059161;28;20504;-91
2023/09/22 03:57:43;;;;;;;2.17;0.93;;;;;;;21.52;100.00;95037.19;5058062;28;20016;-92
2023/09/22 04:00:19;;;;;;;3.13;1.20;;;;;;;21.72;100.00;95039.19;5052469;28;20020;-91
2023/09/22 04:02:46;;;;;;;5.07;1.17;;;;;;;21.78;100.00;95050.72;5052362;28;20028;-92
2023/09/22 04:05:12;;;;;;;1.93;0.83;;;;;;;22.10;100.00;95054.13;5064641;28;20033;-91
2023/09/22 04:07:38;;;;;;;5.13;1.97;;;;;;;21.85;100.00;95065.50;5067718;28;20177;-91
2023/09/22 04:10:05;;;;;;;4.03;1.30;;;;;;;21.87;100.00;95073.28;5080852;28;20020;-91
2023/09/22 04:12:48;;;;;;;2.03;0.97;;;;;;;21.33;100.00;95065.38;5071157;28;20035;-91
2023/09/22 04:15:15;;;;;;;1.05;0.70;;;;;;;21.92;100.00;95078.66;5059181;28;20042;-92
2023/09/22 04:17:41;;;;;;;4.07;1.10;;;;;;;21.43;100.00;95062.81;5057139;28;20119;-91
2023/09/22 04:20:08;;;;;;;1.90;0.90;;;;;;;21.86;100.00;95068.97;5061474;28;20026;-91
2023/09/22 04:22:34;;;;;;;3.37;0.90;;;;;;;21.64;100.00;95064.56;5071435;28;20028;-92
2023/09/22 04:25:01;;;;;;;2.03;0.80;;;;;;;21.62;100.00;95063.19;5072966;28;20861;-92
2023/09/22 04:27:34;;;;;;;2.67;0.77;;;;;;;21.79;100.00;95060.38;5060754;28;20099;-92
2023/09/22 04:30:00;;;;;;;2.70;0.80;;;;;;;21.57;100.00;95060.50;5074540;28;20048;-92
2023/09/22 04:32:33;;;;;;;3.27;1.00;;;;;;;21.80;100.00;95053.97;5056073;28;20020;-92
2023/09/22 04:34:59;;;;;;;3.70;1.20;;;;;;;21.89;100.00;95050.53;5057461;28;20023;-92
2023/09/22 04:37:25;;;;;;;1.50;0.90;;;;;;;21.80;100.00;95052.09;5058767;28;20031;-92
2023/09/22 04:39:52;;;;;;;3.30;0.93;;;;;;;22.15;100.00;95036.47;5078965;28;20012;-92
2023/09/22 04:42:20;;;;;;;3.37;1.13;;;;;;;21.93;100.00;95034.78;5089721;28;20095;-93
2023/09/22 04:44:46;;;;;;;3.77;1.33;;;;;;;21.54;100.00;95031.59;5041402;28;20036;-81
2023/09/22 04:47:12;;;;;;;12.27;5.43;;;;;;;20.94;100.00;95001.41;5066123;28;20025;-93
2023/09/22 04:49:38;;;;;;;3.70;1.10;;;;;;;20.34;100.00;94967.69;5047853;28;20073;-92
2023/09/22 04:52:08;;;;;;;5.33;1.27;;;;;;;20.06;100.00;94966.06;5079557;28;20511;-94
2023/09/22 04:54:48;;;;;;;3.03;0.80;;;;;;;20.77;100.00;94966.81;5052460;28;20024;-93
2023/09/22 04:57:14;;;;;;;3.03;0.90;;;;;;;20.37;100.00;94970.66;5081049;28;20038;-92
2023/09/22 04:59:40;;;;;;;2.80;1.33;;;;;;;21.11;100.00;94977.22;5055838;28;20081;-93
2023/09/22 05:02:05;;;;;;;2.23;1.30;;;;;;;21.06;100.00;94993.22;5063224;28;20416;-93
2023/09/22 05:04:31;;;;;;;3.07;1.17;;;;;;;21.25;100.00;94972.25;5051065;28;20040;-94
2023/09/22 05:06:57;;;;;;;1.90;1.07;;;;;;;21.17;100.00;94963.66;5054166;28;20027;-96
2023/09/22 05:09:23;;;;;;;3.57;0.80;;;;;;;21.35;100.00;94996.41;5049250;28;20024;-95
2023/09/22 05:11:48;;;;;;;3.43;0.83;;;;;;;21.75;100.00;95038.66;5076532;28;20146;-95
2023/09/22 05:14:14;;;;;;;0.93;0.70;;;;;;;21.55;100.00;95055.41;5065934;28;20181;-95
2023/09/22 05:16:42;;;;;;;3.17;0.90;;;;;;;21.50;100.00;95074.09;5058734;28;20031;-95
2023/09/22 05:19:10;;;;;;;2.83;1.00;;;;;;;21.74;100.00;95073.72;5063819;28;20016;-95
2023/09/22 05:21:36;;;;;;;3.87;0.90;;;;;;;21.70;100.00;95059.25;5058957;28;20478;-95
2023/09/22 05:24:02;;;;;;;2.40;0.80;;;;;;;21.72;100.00;95065.94;5060830;28;20038;-94
2023/09/22 05:26:28;;;;;;;1.87;0.87;;;;;;;22.01;100.00;95073.63;5079258;28;20012;-95
2023/09/22 05:28:54;;;;;;;1.23;0.73;;;;;;;21.96;100.00;95077.06;5060041;28;20028;-95
2023/09/22 05:31:19;;;;;;;2.90;1.10;;;;;;;21.97;100.00;95053.81;5061115;28;20045;-95
2023/09/22 05:33:48;;;;;;;2.13;1.13;;;;;;;21.51;100.00;95069.56;5078132;28;20030;-95
2023/09/22 05:36:14;;;;;;;11.77;6.93;;;;;;;21.58;100.00;95075.47;5044203;28;20539;-96
2023/09/22 05:38:39;;;;;;;10.83;6.70;;;;;;;21.69;100.00;95069.13;5062898;28;20058;-95
2023/09/22 05:41:05;;;;;;;7.33;3.67;;;;;;;21.34;100.00;95089.22;5068038;28;20028;-95
2023/09/22 05:43:32;;;;;;;4.50;1.80;;;;;;;21.37;100.00;95080.69;5055498;28;20028;-95
2023/09/22 05:45:57;;;;;;;3.70;1.43;;;;;;;21.14;100.00;95078.31;5050805;28;20028;-94
2023/09/22 05:48:23;;;;;;;2.77;1.10;;;;;;;20.84;100.00;95074.28;5064758;28;20027;-95
2023/09/22 05:50:59;;;;;;;3.03;1.10;;;;;;;20.84;100.00;95070.81;5067148;28;20028;-95
2023/09/22 05:53:42;;;;;;;2.77;1.07;;;;;;;21.09;100.00;95071.06;5063516;28;20028;-95
2023/09/22 05:56:14;;;;;;;3.00;1.20;;;;;;;21.39;100.00;95078.56;5055608;28;20045;-94
2023/09/22 06:02:20;;;;;;;1.97;1.00;;;;;;;21.08;100.00;95071.28;5090688;28;20031;-95
2023/09/22 06:05:09;;;;;;;3.10;0.90;;;;;;;20.87;100.00;95060.41;5058853;28;20470;-95
2023/09/22 06:07:35;;;;;;;2.00;0.70;;;;;;;21.00;100.00;95053.84;5067788;28;20058;-94
2023/09/22 06:10:05;;;;;;;5.43;1.13;;;;;;;21.14;100.00;95056.91;5076068;28;20021;-93
2023/09/22 06:12:31;;;;;;;2.23;1.00;;;;;;;21.24;100.00;95066.91;5080000;28;20008;-95
2023/09/22 06:15:17;;;;;;;1.70;0.83;;;;;;;20.91;100.00;95066.06;5067476;28;20054;-95
2023/09/22 06:17:46;;;;;;;1.80;0.80;;;;;;;20.76;100.00;95074.75;5071054;28;20024;-94
2023/09/22 06:20:18;;;;;;;1.13;0.80;;;;;;;20.68;100.00;95089.34;5077184;28;20004;-94
2023/09/22 06:22:47;;;;;;;6.43;0.80;;;;;;;20.76;100.00;95106.81;5096265;28;20051;-94
2023/09/22 06:25:13;;;;;;;2.73;1.07;;;;;;;20.49;100.00;95120.88;5097970;28;20012;-93
2023/09/22 06:27:54;;;;;;;3.27;1.20;;;;;;;20.59;100.00;95132.75;5064706;28;20111;-95
2023/09/22 06:30:21;;;;;;;2.33;0.93;;;;;;;20.68;100.00;95131.28;5071851;28;20058;-94
2023/09/22 06:32:47;;;;;;;4.57;1.00;;;;;;;21.14;100.00;95132.56;5071402;28;20036;-92
2023/09/22 06:35:12;;;;;;;2.87;1.30;;;;;;;21.27;100.00;95138.59;5069216;28;20028;-91
2023/09/22 06:37:38;;;;;;;2.37;1.00;;;;;;;20.99;100.00;95144.97;5056859;28;20036;-91
2023/09/22 06:40:15;;;;;;;2.50;1.13;;;;;;;20.93;100.00;95154.81;5067045;28;20038;-87
2023/09/22 06:42:42;;;;;;;4.03;1.30;;;;;;;20.47;100.00;95160.38;5049208;28;20505;-86
2023/09/22 06:45:16;;;;;;;3.27;1.20;;;;;;;20.58;100.00;95163.19;5046161;28;20059;-87
2023/09/22 06:47:42;;;;;;;2.20;1.10;;;;;;;20.29;100.00;95165.19;5067874;28;20101;-87
2023/09/22 06:50:08;;;;;;;3.70;1.27;;;;;;;20.58;100.00;95164.00;5070724;28;20077;-86
2023/09/22 06:52:35;;;;;;;3.50;0.90;;;;;;;20.89;100.00;95153.69;5055469;28;20456;-87
2023/09/22 06:55:01;;;;;;;3.40;1.00;;;;;;;20.86;100.00;95155.00;5055409;28;20062;-87
2023/09/22 06:57:26;;;;;;;4.17;1.10;;;;;;;20.61;100.00;95154.69;5051604;28;20040;-87
2023/09/22 06:59:56;;;;;;;6.40;1.50;;;;;;;20.21;100.00;95175.22;5054037;28;20042;-87
2023/09/22 07:02:22;;;;;;;3.47;1.00;;;;;;;20.15;100.00;95186.09;5053910;28;20028;-87
2023/09/22 07:04:50;;;;;;;2.47;1.03;;;;;;;20.38;100.00;95191.22;5055723;28;20069;-88
2023/09/22 07:07:18;;;;;;;3.30;1.43;;;;;;;20.61;100.00;95182.22;5051018;28;20025;-88
2023/09/22 07:09:44;;;;;;;1.83;1.00;;;;;;;20.94;100.00;95185.81;5038418;28;20868;-88
2023/09/22 07:12:10;;;;;;;2.23;1.37;;;;;;;20.87;100.00;95177.19;5046458;28;20032;-88
2023/09/22 07:14:36;;;;;;;2.70;0.93;;;;;;;20.45;100.00;95181.16;5068113;28;20051;-88
2023/09/22 07:17:02;;;;;;;3.17;1.10;;;;;;;20.52;100.00;95188.22;5048704;28;20024;-88
2023/09/22 07:19:30;;;;;;;2.83;1.20;;;;;;;20.65;100.00;95185.19;5066599;28;20025;-88
2023/09/22 07:21:55;;;;;;;2.73;1.20;;;;;;;20.32;100.00;95181.53;5044393;28;20016;-88
2023/09/22 07:24:21;;;;;;;3.23;1.10;;;;;;;20.36;100.00;95187.19;5058816;28;20755;-88
2023/09/22 07:26:47;;;;;;;4.47;1.03;;;;;;;20.17;100.00;95173.31;5059048;28;20028;-87
2023/09/22 07:29:12;;;;;;;2.63;1.07;;;;;;;20.29;100.00;95184.72;5053901;28;20446;-88
2023/09/22 07:31:39;;;;;;;3.63;0.93;;;;;;;20.10;100.00;95183.34;5055641;28;20020;-88
2023/09/22 07:34:04;;;;;;;3.30;1.10;;;;;;;20.41;100.00;95180.03;5057019;28;20032;-88
2023/09/22 07:36:30;;;;;;;1.83;0.77;;;;;;;20.74;100.00;95170.34;5068470;28;20035;-88
2023/09/22 07:38:55;;;;;;;1.60;0.70;;;;;;;20.25;100.00;95191.56;5046854;28;20535;-88
2023/09/22 07:41:21;;;;;;;2.70;1.10;;;;;;;20.35;100.00;95196.25;5047668;28;20031;-88
2023/09/22 07:43:47;;;;;;;2.47;1.10;;;;;;;20.26;100.00;95198.53;5068326;28;20081;-87
2023/09/22 07:46:12;;;;;;;2.53;1.10;;;;;;;20.28;100.00;95190.28;5050653;28;20028;-88
2023/09/22 07:48:38;;;;;;;2.80;0.70;;;;;;;20.01;100.00;95182.94;5051127;28;20028;-84
2023/09/22 07:51:04;;;;;;;2.40;1.00;;;;;;;19.93;100.00;95180.69;5062007;28;20032;-85
2023/09/22 07:53:30;;;;;;;3.63;1.20;;;;;;;20.40;100.00;95178.44;5061027;28;20024;-85
2023/09/22 07:55:59;;;;;;;3.27;1.07;;;;;;;20.59;100.00;95170.97;5047397;28;20051;-85
2023/09/22 07:58:29;;;;;;;2.03;0.90;;;;;;;20.34;100.00;95178.63;5060132;28;20382;-86
2023/09/22 08:00:54;;;;;;;2.60;1.10;;;;;;;20.32;100.00;95184.22;5067326;28;20090;-85
2023/09/22 08:03:21;;;;;;;2.67;1.20;;;;;;;20.66;100.00;95184.97;5080759;28;20074;-85
2023/09/22 08:05:50;;;;;;;3.73;1.23;;;;;;;20.32;100.00;95202.06;5047965;28;20033;-85
2023/09/22 08:08:19;;;;;;;2.73;1.57;;;;;;;20.95;100.00;95190.09;5050270;28;20073;-85
2023/09/22 08:10:53;;;;;;;5.17;1.87;;;;;;;20.71;100.00;95182.34;5043246;28;20035;-85
2023/09/22 08:13:21;;;;;;;5.07;1.93;;;;;;;20.67;100.00;95183.91;5074681;28;20024;-85
2023/09/22 08:15:47;;;;;;;5.03;1.97;;;;;;;20.70;100.00;95182.59;5072004;28;20454;-85
2023/09/22 08:18:37;;;;;;;5.07;2.17;;;;;;;20.55;100.00;95180.53;5049538;28;20051;-85
2023/09/22 08:21:06;;;;;;;6.73;2.50;;;;;;;20.87;100.00;95178.00;5051298;28;20063;-84
2023/09/22 08:23:33;;;;;;;6.90;3.03;;;;;;;20.73;100.00;95181.31;5072372;28;20096;-84
2023/09/22 08:25:58;;;;;;;5.63;2.63;;;;;;;20.98;100.00;95175.44;5058064;28;20016;-85
2023/09/22 08:28:25;;;;;;;6.50;2.83;;;;;;;20.67;100.00;95183.91;5044321;28;20035;-85
2023/09/22 08:30:56;;;;;;;6.07;3.00;;;;;;;20.57;100.00;95185.63;5042876;28;20017;-84
2023/09/22 08:33:21;;;;;;;5.90;3.47;;;;;;;20.58;100.00;95184.56;5063387;28;20036;-84
2023/09/22 08:35:51;;;;;;;4.90;2.47;;;;;;;20.65;100.00;95203.88;5065871;28;20077;-84
2023/09/22 08:38:23;;;;;;;5.97;2.80;;;;;;;21.06;100.00;95193.69;5056422;28;20051;-85
2023/09/22 08:40:49;;;;;;;4.70;2.50;;;;;;;21.12;100.00;95195.38;5056745;28;20540;-84
2023/09/22 08:43:15;;;;;;;5.40;2.90;;;;;;;21.63;100.00;95193.25;5048363;28;20108;-84
2023/09/22 08:45:41;;;;;;;5.10;2.67;;;;;;;21.19;100.00;95206.66;5050456;28;20110;-84
2023/09/22 08:48:07;;;;;;;4.60;2.63;;;;;;;21.01;100.00;95210.50;5044680;28;20034;-83
2023/09/22 08:50:35;;;;;;;4.03;2.53;;;;;;;21.38;100.00;95207.97;5066442;28;20025;-84
2023/09/22 08:53:02;;;;;;;5.00;2.50;;;;;;;21.12;100.00;95206.06;5051097;28;20028;-84
2023/09/22 08:55:29;;;;;;;4.73;2.97;;;;;;;21.62;100.00;95200.44;5044646;28;20115;-84
2023/09/22 08:58:10;;;;;;;5.00;2.80;;;;;;;21.64;100.00;95202.88;5058261;28;20021;-84
2023/09/22 09:00:35;;;;;;;5.80;2.87;;;;;;;21.49;100.00;95194.72;5059758;28;20051;-84
2023/09/22 09:03:09;;;;;;;5.67;2.93;;;;;;;21.11;100.00;95201.78;5049846;28;20441;-84
2023/09/22 09:05:36;;;;;;;6.17;3.10;;;;;;;20.92;100.00;95207.47;5054615;28;20028;-84
2023/09/22 09:08:23;;;;;;;5.13;3.10;;;;;;;21.27;100.00;95216.13;5054222;28;20038;-85
2023/09/22 09:10:49;;;;;;;5.00;2.80;;;;;;;21.25;100.00;95211.03;5063874;28;20028;-84
2023/09/22 09:13:16;;;;;;;7.50;3.17;;;;;;;21.41;100.00;95201.31;5045611;28;20036;-87
2023/09/22 09:15:42;;;;;;;4.30;2.87;;;;;;;21.31;100.00;95201.19;5041437;28;20119;-87
2023/09/22 09:18:11;;;;;;;5.50;3.30;;;;;;;22.05;100.00;95200.53;5051610;28;20115;-87
2023/09/22 09:20:42;;;;;;;5.00;3.13;;;;;;;21.92;100.00;95192.94;5065492;28;20024;-85
2023/09/22 09:23:21;;;;;;;5.27;3.00;;;;;;;22.16;100.00;95202.25;5067537;28;20032;-84
2023/09/22 09:25:49;;;;;;;5.60;2.97;;;;;;;21.70;100.00;95207.22;5055777;28;20449;-84
2023/09/22 09:28:17;;;;;;;5.93;2.80;;;;;;;21.17;100.00;95212.28;5063969;28;20040;-85
2023/09/22 09:30:50;;;;;;;4.07;2.60;;;;;;;21.69;100.00;95205.59;5052852;28;20031;-85
2023/09/22 09:33:19;;;;;;;4.73;2.77;;;;;;;22.34;100.00;95190.34;5072644;28;20039;-86
2023/09/22 09:35:45;;;;;;;4.63;2.93;;;;;;;21.81;100.00;95198.22;5068507;28;20094;-85
2023/09/22 09:38:12;;;;;;;5.20;2.67;;;;;;;21.45;100.00;95204.31;5062198;28;20036;-86
2023/09/22 09:40:39;;;;;;;5.73;3.00;;;;;;;21.21;100.00;95215.25;5050207;28;20028;-84
2023/09/22 09:43:12;;;;;;;5.70;2.97;;;;;;;21.32;100.00;95232.22;5065867;28;20058;-85
2023/09/22 09:45:48;;;;;;;3.33;2.17;;;;;;;21.53;100.00;95214.53;5063879;28;20080;-85
2023/09/22 09:48:17;;;;;;;4.07;2.40;;;;;;;21.46;100.00;95219.28;5069619;28;20059;-85
2023/09/22 09:50:50;;;;;;;6.43;2.30;;;;;;;21.45;100.00;95217.69;5060808;28;20058;-85
2023/09/22 09:53:35;;;;;;;4.18;2.50;;;;;;;21.78;100.00;95219.34;5055407;28;20052;-83
2023/09/22 09:56:03;;;;;;;5.70;2.80;;;;;;;22.24;100.00;95214.38;5073339;28;20085;-85
2023/09/22 09:58:31;;;;;;;5.30;3.00;;;;;;;21.85;100.00;95220.72;5051038;28;20034;-85
2023/09/22 10:00:59;;;;;;;4.83;2.80;;;;;;;22.06;100.00;95220.88;5070049;28;20465;-85
2023/09/22 10:03:30;;;;;;;4.45;2.45;;;;;;;21.90;100.00;95222.66;5056403;28;20031;-84
2023/09/22 10:05:57;;;;;;;4.20;2.90;;;;;;;21.85;100.00;95209.22;5050336;28;20547;-85
2023/09/22 10:08:25;;;;;;;5.60;2.67;;;;;;;21.94;100.00;95215.72;5055510;28;20032;-85
2023/09/22 10:11:09;;;;;;;4.53;2.63;;;;;;;22.29;100.00;95209.03;5069524;28;20088;-85
2023/09/22 10:13:35;;;;;;;5.65;2.85;;;;;;;22.74;100.00;95211.19;5084050;28;20040;-85
2023/09/22 10:16:06;;;;;;;3.53;2.53;;;;;;;22.37;100.00;95216.59;5044593;28;20093;-85
2023/09/22 10:18:51;;;;;;;5.67;2.63;;;;;;;22.68;100.00;95206.88;5042898;28;20070;-85
2023/09/22 10:21:29;;;;;;;5.25;2.45;;;;;;;22.57;100.00;95199.84;5044945;28;20395;-85
2023/09/22 10:24:28;;;;;;;4.65;2.60;;;;;;;22.72;100.00;95199.91;5068626;28;20525;-84
2023/09/22 10:26:56;;;;;;;4.57;2.42;;;;;;;22.57;100.00;95218.59;5049771;28;20115;-84
2023/09/22 10:29:37;;;;;;;3.42;1.70;;;;;;;22.64;100.00;95221.06;5053757;28;20040;-85
2023/09/22 10:32:15;;;;;;;3.97;1.83;;;;;;;22.56;100.00;95230.38;5052579;28;20024;-84
2023/09/22 10:35:09;;;;;;;3.47;2.00;;;;;;;22.80;100.00;95217.38;5043632;28;20028;-84
2023/09/22 10:37:35;;;;;;;5.03;2.03;;;;;;;23.05;100.00;95224.75;5049563;28;20092;-84
2023/09/22 10:40:08;;;;;;;5.72;2.08;;;;;;;23.51;100.00;95208.81;5045497;28;20503;-85
2023/09/22 10:42:43;;;;;;;3.95;1.77;;;;;;;23.06;100.00;95202.22;5048552;28;20038;-84
2023/09/22 10:45:10;;;;;;;3.97;1.70;;;;;;;23.56;100.00;95191.91;5079985;28;20020;-85
2023/09/22 10:47:42;;;;;;;2.03;1.55;;;;;;;23.18;100.00;95204.69;5085303;28;20112;-85
2023/09/22 10:50:14;;;;;;;3.10;2.03;;;;;;;23.90;100.00;95205.63;5072678;28;20031;-85
2023/09/22 10:52:53;;;;;;;2.95;1.60;;;;;;;23.54;100.00;95210.97;5048473;28;20024;-85
2023/09/22 10:55:39;;;;;;;2.33;1.63;;;;;;;23.67;100.00;95215.78;5044723;28;20149;-85
2023/09/22 10:58:05;;;;;;;3.05;1.73;;;;;;;24.08;100.00;95225.78;5068387;28;20050;-85
2023/09/22 11:00:32;;;;;;;2.47;1.70;;;;;;;23.16;100.00;95225.59;5042170;28;20021;-85
2023/09/22 11:03:14;;;;;;;3.25;1.95;;;;;;;24.04;100.00;95222.00;5051114;28;20027;-84
2023/09/22 11:05:42;;;;;;;4.07;2.03;;;;;;;23.06;100.00;95223.69;5043738;28;20193;-84
2023/09/22 11:08:17;;;;;;;4.07;1.80;;;;;;;23.32;100.00;95223.78;5050094;28;20028;-84
2023/09/22 11:10:54;;;;;;;3.25;1.98;;;;;;;23.53;100.00;95222.75;5041197;28;20050;-84
2023/09/22 11:13:23;;;;;;;2.97;1.60;;;;;;;23.42;100.00;95223.81;5053414;28;20113;-83
2023/09/22 11:15:59;;;;;;;5.10;2.13;;;;;;;22.90;100.00;95214.72;5045326;28;20024;-84
2023/09/22 11:18:32;;;;;;;3.22;1.73;;;;;;;23.82;100.00;95203.50;5061683;28;20417;-84
2023/09/22 11:21:05;;;;;;;3.55;1.95;;;;;;;23.60;100.00;95206.38;5063344;28;20016;-85
2023/09/22 11:23:32;;;;;;;3.53;2.05;;;;;;;23.12;100.00;95206.53;5049943;28;20028;-84
2023/09/22 11:26:04;;;;;;;3.30;1.80;;;;;;;23.63;100.00;95195.91;5048182;28;20773;-84
2023/09/22 11:28:31;;;;;;;3.85;1.77;;;;;;;23.76;100.00;95186.56;5056268;28;20024;-85
2023/09/22 11:31:14;;;;;;;3.60;1.95;;;;;;;23.83;100.00;95184.41;5054614;28;20020;-88
2023/09/22 11:33:44;;;;;;;3.30;1.98;;;;;;;23.03;100.00;95194.69;5038430;28;20024;-85
2023/09/22 11:36:10;;;;;;;2.97;1.58;;;;;;;23.69;100.00;95191.41;5065237;28;20127;-86